createdAt,value
2022-07-31T00:00:27.473Z,3.60
2022-07-31T00:02:55.189Z,3.67
2022-07-31T00:05:24.846Z,3.87
2022-07-31T00:07:54.317Z,3.87
2022-07-31T00:10:21.579Z,3.50
2022-07-31T00:12:48.677Z,3.70
2022-07-31T00:15:16.277Z,3.80
2022-07-31T00:17:44.898Z,3.77
2022-07-31T00:20:15.098Z,3.50
2022-07-31T00:22:45.149Z,3.77
2022-07-31T00:25:14.787Z,3.50
2022-07-31T00:27:42.774Z,3.63
2022-07-31T00:30:13.053Z,3.60
2022-07-31T00:32:41.843Z,4.10
2022-07-31T00:35:12.253Z,3.60
2022-07-31T00:37:41.770Z,3.73
2022-07-31T00:40:13.139Z,3.80
2022-07-31T00:42:41.430Z,3.80
2022-07-31T00:45:13.695Z,3.83
2022-07-31T00:47:42.137Z,3.93
2022-07-31T00:50:10.980Z,3.80
2022-07-31T00:52:38.672Z,4.10
2022-07-31T00:55:06.867Z,4.00
2022-07-31T00:57:34.355Z,3.87
2022-07-31T01:00:01.366Z,3.90
2022-07-31T01:02:29.411Z,3.90
2022-07-31T01:04:56.850Z,3.83
2022-07-31T01:07:23.865Z,4.40
2022-07-31T01:09:53.586Z,4.20
2022-07-31T01:12:39.943Z,4.00
2022-07-31T01:15:13.166Z,4.77
2022-07-31T01:17:43.520Z,4.57
2022-07-31T01:20:11.987Z,4.50
2022-07-31T01:22:55.059Z,4.77
2022-07-31T01:26:35.671Z,4.80
2022-07-31T01:29:25.421Z,4.10
2022-07-31T01:32:01.876Z,4.43
2022-07-31T01:34:46.887Z,4.70
2022-07-31T01:37:32.310Z,4.70
2022-07-31T01:40:10.365Z,5.10
2022-07-31T01:42:43.189Z,4.80
2022-07-31T01:45:14.128Z,5.03
2022-07-31T01:47:43.063Z,5.43
2022-07-31T01:50:42.434Z,4.93
2022-07-31T01:53:00.809Z,5.07
2022-07-31T01:55:30.321Z,5.20
2022-07-31T01:58:22.168Z,5.30
2022-07-31T02:00:54.688Z,4.90
2022-07-31T02:03:42.964Z,5.17
2022-07-31T02:06:18.308Z,5.10
2022-07-31T02:08:52.725Z,4.63
2022-07-31T02:11:21.519Z,4.70
2022-07-31T02:13:50.398Z,5.10
2022-07-31T02:16:19.693Z,5.10
2022-07-31T02:18:51.677Z,4.50
2022-07-31T02:21:26.797Z,5.17
2022-07-31T02:23:54.170Z,4.77
2022-07-31T02:26:22.603Z,4.40
2022-07-31T02:28:52.262Z,4.73
2022-07-31T02:31:22.980Z,4.60
2022-07-31T02:33:52.422Z,4.70
2022-07-31T02:36:22.633Z,4.43
2022-07-31T02:38:52.814Z,4.33
2022-07-31T02:41:22.451Z,4.23
2022-07-31T02:43:50.687Z,4.20
2022-07-31T02:46:22.970Z,4.53
2022-07-31T02:48:52.060Z,4.33
2022-07-31T02:51:22.886Z,4.63
2022-07-31T02:53:52.171Z,4.23
2022-07-31T02:56:22.451Z,4.23
2022-07-31T02:58:50.336Z,4.37
2022-07-31T03:01:35.923Z,4.53
2022-07-31T03:04:03.806Z,4.70
2022-07-31T03:06:31.239Z,4.40
2022-07-31T03:08:59.678Z,4.40
2022-07-31T03:11:26.955Z,4.50
2022-07-31T03:13:58.179Z,4.30
2022-07-31T03:16:26.747Z,4.03
2022-07-31T03:18:56.116Z,4.20
2022-07-31T03:21:25.711Z,4.17
2022-07-31T03:23:52.964Z,3.87
2022-07-31T03:26:23.483Z,4.00
2022-07-31T03:28:51.042Z,4.13
2022-07-31T03:31:18.518Z,3.83
2022-07-31T03:33:46.288Z,4.20
2022-07-31T03:36:15.931Z,3.90
2022-07-31T03:38:47.543Z,4.17
2022-07-31T03:41:25.240Z,3.90
2022-07-31T03:43:53.907Z,3.83
2022-07-31T03:46:24.387Z,3.97
2022-07-31T03:48:52.845Z,3.63
2022-07-31T03:51:23.148Z,3.90
2022-07-31T03:53:51.716Z,4.00
2022-07-31T03:56:40.944Z,3.80
2022-07-31T03:59:15.282Z,3.93
2022-07-31T04:01:58.064Z,4.10
2022-07-31T04:04:55.691Z,3.67
2022-07-31T04:07:24.172Z,3.73
2022-07-31T04:09:51.680Z,3.93
2022-07-31T04:12:20.300Z,3.77
2022-07-31T04:14:47.968Z,3.90
2022-07-31T04:17:15.558Z,3.90
2022-07-31T04:19:43.005Z,3.73
2022-07-31T04:22:10.664Z,3.80
2022-07-31T04:24:39.168Z,4.07
2022-07-31T04:27:27.115Z,3.80
2022-07-31T04:29:57.694Z,3.90
2022-07-31T04:32:25.634Z,3.77
2022-07-31T04:35:03.925Z,4.07
2022-07-31T04:37:32.648Z,3.67
2022-07-31T04:40:00.710Z,3.83
2022-07-31T04:42:28.581Z,4.00
2022-07-31T04:45:00.600Z,3.90
2022-07-31T04:47:28.149Z,4.10
2022-07-31T04:49:56.417Z,3.87
2022-07-31T04:52:23.861Z,3.70
2022-07-31T04:54:51.870Z,4.00
2022-07-31T04:57:22.010Z,3.90
2022-07-31T05:00:00.381Z,3.90
2022-07-31T05:02:31.964Z,4.13
2022-07-31T05:04:59.709Z,4.10
2022-07-31T05:07:34.411Z,4.90
2022-07-31T05:10:06.647Z,4.87
2022-07-31T05:12:35.733Z,4.40
2022-07-31T05:15:03.253Z,4.70
2022-07-31T05:17:30.824Z,4.53
2022-07-31T05:20:36.430Z,4.20
2022-07-31T05:23:23.241Z,5.20
2022-07-31T05:26:01.826Z,5.67
2022-07-31T05:28:30.246Z,6.93
2022-07-31T05:30:58.661Z,7.17
2022-07-31T05:33:27.094Z,7.60
2022-07-31T05:35:56.282Z,9.50
2022-07-31T05:38:24.106Z,9.27
2022-07-31T05:41:11.954Z,11.00
2022-07-31T05:43:56.891Z,11.73
2022-07-31T05:46:35.501Z,12.50
2022-07-31T05:49:03.055Z,12.10
2022-07-31T05:51:31.091Z,11.90
2022-07-31T05:53:58.587Z,12.10
2022-07-31T05:57:01.150Z,10.90
2022-07-31T05:59:35.366Z,11.00
2022-07-31T06:02:04.048Z,10.87
2022-07-31T06:04:41.952Z,9.87
2022-07-31T06:07:09.460Z,9.10
2022-07-31T06:09:37.242Z,8.40
2022-07-31T06:12:05.801Z,8.97
2022-07-31T06:14:33.519Z,9.57
2022-07-31T06:17:07.696Z,9.03
2022-07-31T06:19:37.734Z,10.20
2022-07-31T06:22:05.630Z,11.70
2022-07-31T06:24:33.553Z,11.93
2022-07-31T06:27:03.327Z,14.17
2022-07-31T06:29:41.034Z,14.40
2022-07-31T06:32:10.519Z,14.10
2022-07-31T06:34:38.803Z,11.10
2022-07-31T06:37:07.214Z,11.80
2022-07-31T06:39:54.621Z,9.97
2022-07-31T06:42:51.667Z,9.97
2022-07-31T06:45:57.428Z,11.30
2022-07-31T06:48:43.644Z,12.57
2022-07-31T06:51:30.262Z,19.00
2022-07-31T06:54:03.632Z,17.53
2022-07-31T06:56:31.916Z,13.90
2022-07-31T06:59:00.175Z,9.40
2022-07-31T07:01:28.757Z,8.97
2022-07-31T07:03:56.543Z,11.97
2022-07-31T07:06:25.188Z,19.37
2022-07-31T07:08:53.483Z,28.30
2022-07-31T07:11:22.725Z,24.50
2022-07-31T07:13:50.889Z,20.97
2022-07-31T07:16:19.694Z,10.80
2022-07-31T07:18:47.760Z,10.10
2022-07-31T07:21:19.481Z,11.77
2022-07-31T07:23:46.941Z,10.20
2022-07-31T07:26:26.013Z,11.90
2022-07-31T07:28:53.635Z,14.57
2022-07-31T07:31:21.204Z,18.10
2022-07-31T07:33:50.373Z,20.47
2022-07-31T07:36:24.692Z,25.30
2022-07-31T07:39:03.653Z,23.47
2022-07-31T07:41:33.576Z,21.90
2022-07-31T07:44:01.920Z,17.40
2022-07-31T07:46:30.666Z,15.60
2022-07-31T07:49:02.407Z,12.20
2022-07-31T07:51:59.578Z,9.67
2022-07-31T07:54:48.222Z,8.97
2022-07-31T07:57:21.858Z,9.07
2022-07-31T08:00:11.781Z,21.07
2022-07-31T08:03:49.568Z,31.50
2022-07-31T08:06:21.525Z,29.97
2022-07-31T08:08:49.197Z,23.47
2022-07-31T08:11:48.869Z,24.67
2022-07-31T08:14:26.509Z,23.93
2022-07-31T08:17:13.441Z,18.10
2022-07-31T08:19:42.362Z,21.90
2022-07-31T08:22:10.779Z,23.70
2022-07-31T08:24:38.782Z,24.03
2022-07-31T08:27:39.938Z,25.77
2022-07-31T08:30:09.772Z,18.97
2022-07-31T08:32:38.581Z,19.43
2022-07-31T08:35:06.982Z,13.60
2022-07-31T08:38:01.714Z,15.23
2022-07-31T08:40:25.260Z,14.77
2022-07-31T08:42:52.887Z,15.70
2022-07-31T08:45:20.578Z,16.23
2022-07-31T08:47:59.346Z,24.07
2022-07-31T08:50:30.815Z,15.60
2022-07-31T08:53:03.730Z,17.97
2022-07-31T08:55:56.012Z,18.77
2022-07-31T08:58:26.851Z,19.47
2022-07-31T09:00:55.170Z,28.70
2022-07-31T09:03:23.486Z,18.77
2022-07-31T09:06:03.444Z,13.37
2022-07-31T09:08:36.586Z,10.90
2022-07-31T09:11:12.566Z,11.90
2022-07-31T09:14:01.811Z,13.60
2022-07-31T09:16:47.563Z,11.20
2022-07-31T09:19:53.147Z,8.20
2022-07-31T09:22:30.905Z,12.37
2022-07-31T09:25:20.962Z,12.37
2022-07-31T09:27:51.073Z,11.50
2022-07-31T09:30:18.725Z,13.50
2022-07-31T09:33:19.808Z,19.13
2022-07-31T09:36:06.702Z,18.57
2022-07-31T09:38:40.860Z,25.33
2022-07-31T09:42:02.059Z,30.07
2022-07-31T09:44:25.979Z,53.67
2022-07-31T09:46:54.187Z,56.17
2022-07-31T09:49:32.748Z,54.53
2022-07-31T09:52:01.188Z,54.27
2022-07-31T09:54:31.394Z,54.00
2022-07-31T09:57:10.948Z,39.90
2022-07-31T09:59:40.811Z,43.50
2022-07-31T10:02:13.159Z,40.67
2022-07-31T10:04:42.979Z,40.40
2022-07-31T10:07:32.269Z,38.37
2022-07-31T10:10:33.693Z,32.87
2022-07-31T10:13:24.771Z,31.37
2022-07-31T10:15:57.324Z,33.17
2022-07-31T10:19:00.044Z,30.63
2022-07-31T10:22:01.682Z,27.80
2022-07-31T10:24:33.856Z,22.93
2022-07-31T10:27:04.867Z,31.23
2022-07-31T10:29:41.133Z,30.40
2022-07-31T10:32:10.480Z,30.97
2022-07-31T10:34:49.432Z,28.83
2022-07-31T10:38:15.755Z,24.47
2022-07-31T10:41:25.289Z,20.00
2022-07-31T10:44:01.054Z,18.97
2022-07-31T10:46:38.967Z,17.17
2022-07-31T10:49:49.416Z,28.83
2022-07-31T10:52:39.876Z,30.17
2022-07-31T10:55:23.222Z,31.57
2022-07-31T10:58:14.427Z,34.07
2022-07-31T11:01:09.735Z,37.37
2022-07-31T11:03:46.328Z,35.50
2022-07-31T11:06:21.610Z,34.60
2022-07-31T11:09:25.964Z,36.70
2022-07-31T11:12:04.540Z,31.10
2022-07-31T11:14:43.264Z,26.90
2022-07-31T11:18:20.216Z,27.67
2022-07-31T11:20:31.032Z,25.00
2022-07-31T11:23:04.936Z,21.10
2022-07-31T11:25:37.662Z,14.03
2022-07-31T11:28:23.639Z,13.63
2022-07-31T11:31:14.966Z,18.20
2022-07-31T11:33:47.775Z,23.90
2022-07-31T11:36:24.069Z,18.70
2022-07-31T11:38:58.498Z,18.53
2022-07-31T11:41:39.152Z,12.77
2022-07-31T11:44:11.821Z,23.60
2022-07-31T11:46:39.332Z,33.17
2022-07-31T11:49:07.048Z,28.97
2022-07-31T11:51:34.521Z,29.40
2022-07-31T11:54:02.068Z,45.73
2022-07-31T11:56:30.021Z,39.67
2022-07-31T11:58:58.724Z,35.63
2022-07-31T12:01:29.304Z,27.60
2022-07-31T12:04:07.479Z,34.63
2022-07-31T12:06:37.657Z,44.57
2022-07-31T12:09:05.505Z,37.27
2022-07-31T12:11:33.126Z,33.07
2022-07-31T12:14:00.893Z,39.60
2022-07-31T12:16:38.833Z,34.33
2022-07-31T12:19:06.318Z,37.60
2022-07-31T12:21:40.691Z,29.30
2022-07-31T12:24:13.299Z,33.20
2022-07-31T12:26:51.162Z,33.60
2022-07-31T12:29:19.861Z,36.60
2022-07-31T12:31:51.027Z,33.70
2022-07-31T12:34:31.630Z,30.53
2022-07-31T12:37:04.541Z,26.10
2022-07-31T12:39:53.918Z,28.30
2022-07-31T12:42:35.139Z,22.50
2022-07-31T12:45:19.491Z,15.47
2022-07-31T12:47:51.835Z,8.97
2022-07-31T12:50:22.877Z,9.20
2022-07-31T12:52:50.441Z,11.00
2022-07-31T12:55:20.790Z,12.83
2022-07-31T12:57:51.453Z,14.60
2022-07-31T13:00:23.440Z,18.10
2022-07-31T13:02:53.022Z,22.17
2022-07-31T13:05:22.098Z,30.80
2022-07-31T13:07:50.450Z,23.90
2022-07-31T13:10:24.045Z,20.03
2022-07-31T13:12:53.029Z,24.50
2022-07-31T13:15:30.134Z,27.67
2022-07-31T13:18:01.715Z,22.50
2022-07-31T13:20:30.915Z,21.43
2022-07-31T13:23:02.694Z,23.50
2022-07-31T13:25:30.750Z,33.73
2022-07-31T13:27:59.095Z,38.10
2022-07-31T13:30:28.216Z,41.47
2022-07-31T13:32:55.787Z,43.90
2022-07-31T13:35:28.274Z,46.80
2022-07-31T13:37:57.104Z,41.50
2022-07-31T13:40:44.021Z,38.50
2022-07-31T13:43:12.043Z,39.20
2022-07-31T13:45:39.850Z,42.87
2022-07-31T13:48:09.504Z,46.57
2022-07-31T13:50:40.435Z,41.77
2022-07-31T13:53:09.392Z,44.27
2022-07-31T13:55:37.508Z,45.87
2022-07-31T13:58:05.407Z,32.00
2022-07-31T14:00:34.435Z,31.53
2022-07-31T14:03:01.929Z,27.60
2022-07-31T14:05:29.468Z,28.77
2022-07-31T14:08:29.623Z,30.20
2022-07-31T14:10:50.079Z,27.80
2022-07-31T14:13:19.552Z,26.60
2022-07-31T14:15:47.684Z,28.30
2022-07-31T14:18:15.613Z,28.60
2022-07-31T14:20:43.590Z,25.47
2022-07-31T14:23:11.460Z,31.80
2022-07-31T14:25:40.235Z,37.17
2022-07-31T14:28:08.919Z,44.97
2022-07-31T14:30:37.429Z,46.07
2022-07-31T14:33:05.223Z,42.70
2022-07-31T14:35:35.821Z,47.00
2022-07-31T14:38:04.543Z,45.53
2022-07-31T14:40:32.672Z,34.30
2022-07-31T14:43:00.191Z,26.03
2022-07-31T14:45:27.814Z,21.90
2022-07-31T14:47:56.836Z,15.57
2022-07-31T14:50:24.632Z,14.00
2022-07-31T14:52:52.362Z,13.20
2022-07-31T14:55:20.035Z,16.97
2022-07-31T14:57:47.712Z,25.40
2022-07-31T15:00:15.648Z,30.07
2022-07-31T15:02:44.687Z,40.60
2022-07-31T15:06:55.463Z,45.07
2022-07-31T15:08:02.684Z,45.10
2022-07-31T15:10:31.205Z,40.27
2022-07-31T15:12:58.725Z,38.30
2022-07-31T15:15:26.318Z,32.80
2022-07-31T15:17:56.397Z,28.97
2022-07-31T15:20:30.109Z,26.50
2022-07-31T15:23:01.602Z,26.30
2022-07-31T15:25:29.252Z,24.87
2022-07-31T15:27:57.005Z,21.93
2022-07-31T15:30:24.670Z,18.63
2022-07-31T15:32:53.138Z,14.57
2022-07-31T15:35:20.865Z,15.67
2022-07-31T15:37:49.355Z,18.50
2022-07-31T15:40:17.620Z,21.20
2022-07-31T15:42:46.589Z,26.10
2022-07-31T15:45:18.163Z,33.97
2022-07-31T15:47:47.202Z,38.67
2022-07-31T15:50:18.786Z,41.40
2022-07-31T15:52:46.840Z,39.30
2022-07-31T15:55:14.858Z,35.63
2022-07-31T15:57:42.561Z,34.73
2022-07-31T16:00:12.661Z,33.23
2022-07-31T16:02:42.571Z,31.60
2022-07-31T16:05:22.194Z,31.83
2022-07-31T16:08:30.529Z,31.90
2022-07-31T16:10:48.241Z,35.43
2022-07-31T16:13:19.019Z,37.17
2022-07-31T16:15:47.018Z,44.10
2022-07-31T16:18:18.221Z,52.53
2022-07-31T16:20:46.671Z,48.97
2022-07-31T16:23:14.166Z,44.90
2022-07-31T16:25:41.623Z,47.73
2022-07-31T16:28:09.055Z,50.40
2022-07-31T16:31:30.023Z,52.83
2022-07-31T16:33:59.346Z,51.17
2022-07-31T16:36:26.863Z,54.93
2022-07-31T16:39:18.494Z,54.67
2022-07-31T16:41:51.910Z,45.57
2022-07-31T16:44:23.096Z,44.77
2022-07-31T16:46:54.707Z,39.57
2022-07-31T16:49:28.504Z,35.70
2022-07-31T16:52:09.754Z,30.00
2022-07-31T16:54:38.391Z,28.13
2022-07-31T16:57:06.702Z,29.20
2022-07-31T16:59:36.032Z,30.27
2022-07-31T17:02:23.051Z,28.27
2022-07-31T17:04:54.050Z,29.37
2022-07-31T17:07:21.743Z,25.47
2022-07-31T17:09:48.732Z,24.10
2022-07-31T17:12:17.580Z,19.50
2022-07-31T17:14:45.071Z,14.83
2022-07-31T17:17:14.753Z,12.03
2022-07-31T17:19:46.549Z,10.23
2022-07-31T17:22:18.093Z,9.10
2022-07-31T17:24:50.725Z,9.70
2022-07-31T17:27:19.971Z,9.43
2022-07-31T17:29:47.484Z,8.13
2022-07-31T17:32:14.978Z,8.10
2022-07-31T17:34:44.942Z,8.43
2022-07-31T17:37:13.136Z,7.90
2022-07-31T17:39:40.677Z,8.40
2022-07-31T17:42:09.304Z,7.90
2022-07-31T17:44:39.834Z,7.60
2022-07-31T17:47:08.910Z,7.70
2022-07-31T17:49:36.930Z,7.30
2022-07-31T17:52:05.144Z,7.63
2022-07-31T17:54:32.728Z,6.60
2022-07-31T17:57:00.985Z,7.40
2022-07-31T17:59:29.253Z,7.70
2022-07-31T18:02:00.098Z,7.20
2022-07-31T18:04:33.650Z,7.70
2022-07-31T18:07:04.077Z,8.60
2022-07-31T18:09:31.648Z,9.87
2022-07-31T18:11:59.373Z,10.37
2022-07-31T18:14:27.117Z,11.50
2022-07-31T18:16:54.704Z,10.07
2022-07-31T18:19:22.601Z,13.17
2022-07-31T18:21:51.188Z,9.07
2022-07-31T18:24:21.880Z,10.17
2022-07-31T18:26:56.060Z,7.60
2022-07-31T18:29:23.728Z,7.60
2022-07-31T18:31:51.331Z,7.77
2022-07-31T18:34:19.136Z,8.93
2022-07-31T18:36:54.941Z,9.87
2022-07-31T18:39:24.237Z,12.40
2022-07-31T18:41:52.274Z,14.73
2022-07-31T18:44:22.977Z,17.13
2022-07-31T18:46:50.940Z,14.10
2022-07-31T18:51:03.014Z,14.83
2022-07-31T18:52:09.491Z,11.10
2022-07-31T18:54:37.421Z,9.37
2022-07-31T18:57:06.476Z,7.70
2022-07-31T18:59:34.669Z,6.80
2022-07-31T19:02:03.064Z,7.63
2022-07-31T19:04:30.992Z,7.97
2022-07-31T19:06:58.493Z,8.97
2022-07-31T19:09:26.183Z,13.33
2022-07-31T19:11:55.955Z,11.90
2022-07-31T19:14:27.042Z,14.87
2022-07-31T19:16:57.763Z,13.90
2022-07-31T19:19:24.897Z,16.37
2022-07-31T19:21:56.037Z,16.57
2022-07-31T19:24:23.661Z,14.10
2022-07-31T19:26:51.575Z,11.57
2022-07-31T19:29:19.081Z,15.57
2022-07-31T19:31:47.521Z,12.67
2022-07-31T19:34:15.886Z,13.87
2022-07-31T19:36:43.438Z,13.47
2022-07-31T19:39:10.990Z,14.70
2022-07-31T19:41:38.489Z,15.13
2022-07-31T19:44:07.013Z,17.40
2022-07-31T19:46:36.761Z,17.27
2022-07-31T19:49:04.538Z,18.03
2022-07-31T19:51:32.182Z,19.30
2022-07-31T19:54:00.006Z,17.67
2022-07-31T19:56:27.546Z,20.37
2022-07-31T19:58:55.010Z,18.30
2022-07-31T20:01:22.534Z,19.07
2022-07-31T20:03:50.878Z,18.83
2022-07-31T20:06:18.521Z,19.70
2022-07-31T20:08:46.191Z,22.23
2022-07-31T20:11:13.810Z,20.70
2022-07-31T20:13:41.218Z,21.40
2022-07-31T20:16:08.800Z,20.07
2022-07-31T20:18:36.482Z,18.30
2022-07-31T20:21:07.807Z,18.73
2022-07-31T20:23:41.420Z,14.13
2022-07-31T20:26:11.330Z,14.93
2022-07-31T20:28:40.327Z,12.60
2022-07-31T20:31:16.112Z,10.20
2022-07-31T20:33:57.033Z,10.87
2022-07-31T20:36:26.570Z,9.20
2022-07-31T20:38:55.026Z,9.20
2022-07-31T20:41:22.567Z,9.10
2022-07-31T20:43:50.262Z,9.10
2022-07-31T20:46:18.115Z,10.17
2022-07-31T20:48:45.638Z,10.07
2022-07-31T20:51:20.139Z,11.40
2022-07-31T20:53:48.644Z,10.77
2022-07-31T20:56:16.496Z,10.47
2022-07-31T20:58:49.471Z,10.80
2022-07-31T21:01:20.058Z,11.83
2022-07-31T21:03:48.757Z,11.43
2022-07-31T21:06:20.763Z,13.57
2022-07-31T21:08:48.684Z,12.90
2022-07-31T21:11:16.257Z,12.63
2022-07-31T21:13:45.358Z,13.53
2022-07-31T21:16:13.035Z,12.80
2022-07-31T21:18:43.247Z,12.10
2022-07-31T21:21:11.324Z,11.80
2022-07-31T21:23:39.312Z,11.67
2022-07-31T21:26:07.725Z,10.17
2022-07-31T21:28:36.064Z,10.40
2022-07-31T21:31:04.200Z,9.73
2022-07-31T21:33:32.292Z,8.90
2022-07-31T21:36:00.147Z,8.73
2022-07-31T21:38:28.292Z,6.50
2022-07-31T21:40:56.088Z,6.40
2022-07-31T21:43:24.136Z,6.13
2022-07-31T21:45:57.329Z,6.07
2022-07-31T21:48:30.548Z,5.37
2022-07-31T21:50:59.515Z,5.47
2022-07-31T21:53:26.622Z,5.37
2022-07-31T21:55:54.124Z,5.73
2022-07-31T21:58:21.717Z,5.63
2022-07-31T22:00:49.364Z,6.20
2022-07-31T22:03:16.990Z,6.03
2022-07-31T22:06:02.973Z,5.53
2022-07-31T22:08:30.508Z,6.37
2022-07-31T22:10:57.982Z,5.53
2022-07-31T22:13:26.377Z,6.00
2022-07-31T22:15:59.932Z,5.47
2022-07-31T22:18:34.144Z,5.80
2022-07-31T22:21:04.976Z,5.60
2022-07-31T22:23:33.150Z,5.10
2022-07-31T22:26:04.076Z,5.40
2022-07-31T22:28:31.796Z,5.20
2022-07-31T22:30:59.595Z,5.90
2022-07-31T22:33:27.323Z,4.83
2022-07-31T22:35:59.681Z,4.90
2022-07-31T22:38:30.214Z,5.20
2022-07-31T22:40:59.695Z,4.80
2022-07-31T22:44:11.014Z,4.67
2022-07-31T22:46:15.623Z,4.27
2022-07-31T22:48:46.153Z,4.63
2022-07-31T22:51:14.583Z,4.40
2022-07-31T22:53:43.858Z,4.57
2022-07-31T22:56:11.505Z,4.17
2022-07-31T22:58:38.795Z,4.10
2022-07-31T23:01:07.339Z,4.10
2022-07-31T23:03:34.820Z,4.50
2022-07-31T23:06:29.681Z,4.53
2022-07-31T23:08:53.782Z,4.17
2022-07-31T23:11:24.347Z,5.10
2022-07-31T23:13:52.287Z,4.77
2022-07-31T23:16:20.389Z,5.67
2022-07-31T23:18:49.589Z,4.97
2022-07-31T23:21:19.014Z,5.87
2022-07-31T23:23:48.602Z,5.50
2022-07-31T23:26:23.960Z,5.03
2022-07-31T23:28:55.696Z,4.93
2022-07-31T23:31:23.688Z,5.37
2022-07-31T23:33:52.131Z,4.87
2022-07-31T23:36:20.085Z,5.10
2022-07-31T23:38:47.616Z,5.47
2022-07-31T23:41:14.763Z,4.77
2022-07-31T23:43:54.397Z,4.53
2022-07-31T23:46:26.969Z,4.30
2022-07-31T23:48:55.380Z,4.50
2022-07-31T23:51:23.264Z,4.40
2022-07-31T23:53:51.115Z,4.30
2022-07-31T23:56:19.619Z,4.03
2022-07-31T23:58:47.364Z,4.57
